sensor_id;sensor_type;location;lat;lon;timestamp;P1;durP1;ratioP1;P2;durP2;ratioP2
77449;SDS011;66536;53.150;18.172;2023-08-06T00:00:59;7.10;;;5.10;;
77449;SDS011;66536;53.150;18.172;2023-08-06T00:03:46;6.90;;;4.90;;
77449;SDS011;66536;53.150;18.172;2023-08-06T00:06:12;6.90;;;4.40;;
77449;SDS011;66536;53.150;18.172;2023-08-06T00:08:41;5.90;;;4.50;;
77449;SDS011;66536;53.150;18.172;2023-08-06T00:11:09;6.20;;;4.80;;
77449;SDS011;66536;53.150;18.172;2023-08-06T00:13:35;7.90;;;4.90;;
77449;SDS011;66536;53.150;18.172;2023-08-06T00:16:09;6.80;;;4.50;;
77449;SDS011;66536;53.150;18.172;2023-08-06T00:18:37;8.20;;;5.10;;
77449;SDS011;66536;53.150;18.172;2023-08-06T00:21:03;5.20;;;4.00;;
77449;SDS011;66536;53.150;18.172;2023-08-06T00:23:29;6.40;;;4.60;;
77449;SDS011;66536;53.150;18.172;2023-08-06T00:25:55;6.50;;;4.80;;
77449;SDS011;66536;53.150;18.172;2023-08-06T00:28:23;7.50;;;4.80;;
77449;SDS011;66536;53.150;18.172;2023-08-06T00:30:53;7.90;;;5.20;;
77449;SDS011;66536;53.150;18.172;2023-08-06T00:33:20;5.20;;;4.50;;
77449;SDS011;66536;53.150;18.172;2023-08-06T00:35:48;6.20;;;3.90;;
77449;SDS011;66536;53.150;18.172;2023-08-06T00:38:14;7.40;;;5.10;;
77449;SDS011;66536;53.150;18.172;2023-08-06T00:40:40;6.20;;;4.80;;
77449;SDS011;66536;53.150;18.172;2023-08-06T00:43:08;6.90;;;4.40;;
77449;SDS011;66536;53.150;18.172;2023-08-06T00:45:34;8.40;;;5.10;;
77449;SDS011;66536;53.150;18.172;2023-08-06T00:48:02;7.40;;;5.20;;
77449;SDS011;66536;53.150;18.172;2023-08-06T00:50:31;7.30;;;4.70;;
77449;SDS011;66536;53.150;18.172;2023-08-06T00:52:57;6.70;;;4.70;;
77449;SDS011;66536;53.150;18.172;2023-08-06T00:55:25;6.80;;;4.80;;
77449;SDS011;66536;53.150;18.172;2023-08-06T00:57:51;5.40;;;4.50;;
77449;SDS011;66536;53.150;18.172;2023-08-06T01:00:19;10.60;;;4.40;;
77449;SDS011;66536;53.150;18.172;2023-08-06T01:02:46;8.20;;;5.30;;
77449;SDS011;66536;53.150;18.172;2023-08-06T01:05:14;13.40;;;5.10;;
77449;SDS011;66536;53.150;18.172;2023-08-06T01:13:23;7.50;;;5.00;;
77449;SDS011;66536;53.150;18.172;2023-08-06T01:16:07;7.00;;;5.40;;
77449;SDS011;66536;53.150;18.172;2023-08-06T01:18:36;6.90;;;5.30;;
77449;SDS011;66536;53.150;18.172;2023-08-06T01:21:04;8.90;;;5.20;;
77449;SDS011;66536;53.150;18.172;2023-08-06T01:23:30;9.60;;;5.90;;
77449;SDS011;66536;53.150;18.172;2023-08-06T01:26:05;7.30;;;5.30;;
77449;SDS011;66536;53.150;18.172;2023-08-06T01:29:07;11.90;;;6.10;;
77449;SDS011;66536;53.150;18.172;2023-08-06T01:31:39;10.80;;;6.10;;
77449;SDS011;66536;53.150;18.172;2023-08-06T01:34:11;8.70;;;6.00;;
77449;SDS011;66536;53.150;18.172;2023-08-06T01:36:43;10.90;;;6.40;;
77449;SDS011;66536;53.150;18.172;2023-08-06T01:39:11;13.20;;;6.90;;
77449;SDS011;66536;53.150;18.172;2023-08-06T01:41:37;8.30;;;6.10;;
77449;SDS011;66536;53.150;18.172;2023-08-06T01:44:03;9.00;;;6.40;;
77449;SDS011;66536;53.150;18.172;2023-08-06T01:46:31;10.80;;;6.70;;
77449;SDS011;66536;53.150;18.172;2023-08-06T01:48:58;9.00;;;6.80;;
77449;SDS011;66536;53.150;18.172;2023-08-06T01:51:24;9.10;;;6.70;;
77449;SDS011;66536;53.150;18.172;2023-08-06T01:53:50;10.30;;;7.30;;
77449;SDS011;66536;53.150;18.172;2023-08-06T01:56:19;8.70;;;6.70;;
77449;SDS011;66536;53.150;18.172;2023-08-06T01:58:56;8.90;;;6.00;;
77449;SDS011;66536;53.150;18.172;2023-08-06T02:01:22;7.90;;;6.40;;
77449;SDS011;66536;53.150;18.172;2023-08-06T02:03:48;9.40;;;7.10;;
77449;SDS011;66536;53.150;18.172;2023-08-06T02:06:15;8.00;;;6.50;;
77449;SDS011;66536;53.150;18.172;2023-08-06T02:08:41;8.50;;;6.30;;
77449;SDS011;66536;53.150;18.172;2023-08-06T02:11:08;9.10;;;6.50;;
77449;SDS011;66536;53.150;18.172;2023-08-06T02:13:34;7.90;;;5.80;;
77449;SDS011;66536;53.150;18.172;2023-08-06T02:16:01;7.90;;;6.10;;
77449;SDS011;66536;53.150;18.172;2023-08-06T02:18:27;8.10;;;6.20;;
77449;SDS011;66536;53.150;18.172;2023-08-06T02:20:56;9.50;;;5.80;;
77449;SDS011;66536;53.150;18.172;2023-08-06T02:23:23;7.00;;;5.10;;
77449;SDS011;66536;53.150;18.172;2023-08-06T02:26:03;9.00;;;5.60;;
77449;SDS011;66536;53.150;18.172;2023-08-06T02:28:30;10.70;;;5.70;;
77449;SDS011;66536;53.150;18.172;2023-08-06T02:30:57;8.50;;;5.30;;
77449;SDS011;66536;53.150;18.172;2023-08-06T02:33:23;7.40;;;5.40;;
77449;SDS011;66536;53.150;18.172;2023-08-06T02:35:49;10.60;;;6.10;;
77449;SDS011;66536;53.150;18.172;2023-08-06T02:38:16;8.70;;;6.00;;
77449;SDS011;66536;53.150;18.172;2023-08-06T02:40:42;7.10;;;5.40;;
77449;SDS011;66536;53.150;18.172;2023-08-06T02:43:10;8.00;;;5.30;;
77449;SDS011;66536;53.150;18.172;2023-08-06T02:45:36;6.50;;;4.90;;
77449;SDS011;66536;53.150;18.172;2023-08-06T02:48:02;7.10;;;5.10;;
77449;SDS011;66536;53.150;18.172;2023-08-06T02:50:28;6.50;;;5.10;;
77449;SDS011;66536;53.150;18.172;2023-08-06T02:52:54;8.40;;;5.40;;
77449;SDS011;66536;53.150;18.172;2023-08-06T02:55:20;9.10;;;4.90;;
77449;SDS011;66536;53.150;18.172;2023-08-06T02:57:47;6.90;;;4.90;;
77449;SDS011;66536;53.150;18.172;2023-08-06T03:00:13;7.00;;;5.30;;
77449;SDS011;66536;53.150;18.172;2023-08-06T03:02:39;8.30;;;5.40;;
77449;SDS011;66536;53.150;18.172;2023-08-06T03:05:20;6.50;;;4.80;;
77449;SDS011;66536;53.150;18.172;2023-08-06T03:07:46;6.60;;;5.40;;
77449;SDS011;66536;53.150;18.172;2023-08-06T03:10:17;6.40;;;4.90;;
77449;SDS011;66536;53.150;18.172;2023-08-06T03:12:43;8.40;;;5.30;;
77449;SDS011;66536;53.150;18.172;2023-08-06T03:15:09;8.90;;;5.40;;
77449;SDS011;66536;53.150;18.172;2023-08-06T03:17:35;6.60;;;5.30;;
77449;SDS011;66536;53.150;18.172;2023-08-06T03:20:04;7.00;;;5.50;;
77449;SDS011;66536;53.150;18.172;2023-08-06T03:22:31;7.80;;;5.10;;
77449;SDS011;66536;53.150;18.172;2023-08-06T03:24:56;7.80;;;5.60;;
77449;SDS011;66536;53.150;18.172;2023-08-06T03:27:25;10.40;;;5.60;;
77449;SDS011;66536;53.150;18.172;2023-08-06T03:29:51;6.90;;;5.00;;
77449;SDS011;66536;53.150;18.172;2023-08-06T03:32:17;9.90;;;6.10;;
77449;SDS011;66536;53.150;18.172;2023-08-06T03:34:43;7.90;;;5.40;;
77449;SDS011;66536;53.150;18.172;2023-08-06T03:37:10;6.30;;;5.40;;
77449;SDS011;66536;53.150;18.172;2023-08-06T03:39:36;9.60;;;5.80;;
77449;SDS011;66536;53.150;18.172;2023-08-06T03:42:02;7.70;;;5.50;;
77449;SDS011;66536;53.150;18.172;2023-08-06T03:44:29;8.00;;;5.80;;
77449;SDS011;66536;53.150;18.172;2023-08-06T03:46:56;9.20;;;5.60;;
77449;SDS011;66536;53.150;18.172;2023-08-06T03:49:23;10.70;;;5.90;;
77449;SDS011;66536;53.150;18.172;2023-08-06T03:51:49;7.60;;;5.50;;
77449;SDS011;66536;53.150;18.172;2023-08-06T03:54:15;10.10;;;6.30;;
77449;SDS011;66536;53.150;18.172;2023-08-06T03:56:41;6.50;;;5.60;;
77449;SDS011;66536;53.150;18.172;2023-08-06T03:59:07;9.20;;;5.70;;
77449;SDS011;66536;53.150;18.172;2023-08-06T04:01:33;8.00;;;5.40;;
77449;SDS011;66536;53.150;18.172;2023-08-06T04:03:59;7.90;;;5.50;;
77449;SDS011;66536;53.150;18.172;2023-08-06T04:06:25;7.30;;;5.30;;
77449;SDS011;66536;53.150;18.172;2023-08-06T04:08:52;8.50;;;6.00;;
77449;SDS011;66536;53.150;18.172;2023-08-06T04:11:17;8.10;;;6.20;;
77449;SDS011;66536;53.150;18.172;2023-08-06T04:13:43;9.70;;;5.90;;
77449;SDS011;66536;53.150;18.172;2023-08-06T04:16:10;8.30;;;5.20;;
77449;SDS011;66536;53.150;18.172;2023-08-06T04:18:36;7.90;;;5.70;;
77449;SDS011;66536;53.150;18.172;2023-08-06T04:21:02;11.40;;;5.90;;
77449;SDS011;66536;53.150;18.172;2023-08-06T04:23:29;6.70;;;6.00;;
77449;SDS011;66536;53.150;18.172;2023-08-06T04:26:00;7.60;;;5.90;;
77449;SDS011;66536;53.150;18.172;2023-08-06T04:28:29;7.00;;;6.20;;
77449;SDS011;66536;53.150;18.172;2023-08-06T04:30:56;9.70;;;7.20;;
77449;SDS011;66536;53.150;18.172;2023-08-06T04:33:23;9.30;;;6.80;;
77449;SDS011;66536;53.150;18.172;2023-08-06T04:35:53;10.20;;;6.50;;
77449;SDS011;66536;53.150;18.172;2023-08-06T04:38:23;9.40;;;6.70;;
77449;SDS011;66536;53.150;18.172;2023-08-06T04:40:51;7.70;;;6.70;;
77449;SDS011;66536;53.150;18.172;2023-08-06T04:43:19;7.60;;;6.80;;
77449;SDS011;66536;53.150;18.172;2023-08-06T04:45:46;7.80;;;6.60;;
77449;SDS011;66536;53.150;18.172;2023-08-06T04:48:15;7.30;;;6.20;;
77449;SDS011;66536;53.150;18.172;2023-08-06T04:50:46;9.70;;;6.80;;
77449;SDS011;66536;53.150;18.172;2023-08-06T04:53:13;9.40;;;6.60;;
77449;SDS011;66536;53.150;18.172;2023-08-06T04:55:42;8.30;;;6.60;;
77449;SDS011;66536;53.150;18.172;2023-08-06T04:58:09;8.50;;;6.50;;
77449;SDS011;66536;53.150;18.172;2023-08-06T05:00:36;7.80;;;6.40;;
77449;SDS011;66536;53.150;18.172;2023-08-06T05:03:04;7.40;;;5.90;;
77449;SDS011;66536;53.150;18.172;2023-08-06T05:05:31;6.80;;;5.90;;
77449;SDS011;66536;53.150;18.172;2023-08-06T05:07:59;9.80;;;7.10;;
77449;SDS011;66536;53.150;18.172;2023-08-06T05:10:25;7.30;;;6.60;;
77449;SDS011;66536;53.150;18.172;2023-08-06T05:12:52;8.50;;;6.30;;
77449;SDS011;66536;53.150;18.172;2023-08-06T05:15:19;6.90;;;6.20;;
77449;SDS011;66536;53.150;18.172;2023-08-06T05:17:45;7.20;;;6.60;;
77449;SDS011;66536;53.150;18.172;2023-08-06T05:20:11;7.30;;;6.20;;
77449;SDS011;66536;53.150;18.172;2023-08-06T05:22:37;6.30;;;5.40;;
77449;SDS011;66536;53.150;18.172;2023-08-06T05:25:03;6.60;;;4.70;;
77449;SDS011;66536;53.150;18.172;2023-08-06T05:27:30;4.60;;;4.20;;
77449;SDS011;66536;53.150;18.172;2023-08-06T05:29:56;6.70;;;4.50;;
77449;SDS011;66536;53.150;18.172;2023-08-06T05:32:22;5.70;;;4.60;;
77449;SDS011;66536;53.150;18.172;2023-08-06T05:34:48;4.30;;;3.90;;
77449;SDS011;66536;53.150;18.172;2023-08-06T05:37:14;4.90;;;4.00;;
77449;SDS011;66536;53.150;18.172;2023-08-06T05:39:41;6.30;;;4.50;;
77449;SDS011;66536;53.150;18.172;2023-08-06T05:42:07;6.60;;;4.10;;
77449;SDS011;66536;53.150;18.172;2023-08-06T05:44:33;4.70;;;4.20;;
77449;SDS011;66536;53.150;18.172;2023-08-06T05:47:00;5.10;;;4.30;;
77449;SDS011;66536;53.150;18.172;2023-08-06T05:49:26;5.40;;;4.30;;
77449;SDS011;66536;53.150;18.172;2023-08-06T05:51:53;7.40;;;4.20;;
77449;SDS011;66536;53.150;18.172;2023-08-06T05:54:22;7.10;;;4.70;;
77449;SDS011;66536;53.150;18.172;2023-08-06T05:56:48;4.80;;;4.20;;
77449;SDS011;66536;53.150;18.172;2023-08-06T05:59:14;8.00;;;4.40;;
77449;SDS011;66536;53.150;18.172;2023-08-06T06:01:40;6.10;;;4.40;;
77449;SDS011;66536;53.150;18.172;2023-08-06T06:04:05;5.40;;;4.20;;
77449;SDS011;66536;53.150;18.172;2023-08-06T06:06:31;6.50;;;4.40;;
77449;SDS011;66536;53.150;18.172;2023-08-06T06:08:58;5.40;;;4.30;;
77449;SDS011;66536;53.150;18.172;2023-08-06T06:11:24;7.40;;;4.70;;
77449;SDS011;66536;53.150;18.172;2023-08-06T06:13:50;6.10;;;4.60;;
77449;SDS011;66536;53.150;18.172;2023-08-06T06:16:17;4.40;;;3.80;;
77449;SDS011;66536;53.150;18.172;2023-08-06T06:18:43;5.10;;;4.50;;
77449;SDS011;66536;53.150;18.172;2023-08-06T06:21:09;7.30;;;4.50;;
77449;SDS011;66536;53.150;18.172;2023-08-06T06:23:36;8.90;;;5.40;;
77449;SDS011;66536;53.150;18.172;2023-08-06T06:26:02;6.40;;;4.60;;
77449;SDS011;66536;53.150;18.172;2023-08-06T06:28:29;5.40;;;4.90;;
77449;SDS011;66536;53.150;18.172;2023-08-06T06:30:59;6.10;;;4.60;;
77449;SDS011;66536;53.150;18.172;2023-08-06T06:33:28;6.60;;;4.50;;
77449;SDS011;66536;53.150;18.172;2023-08-06T06:35:54;8.30;;;5.00;;
77449;SDS011;66536;53.150;18.172;2023-08-06T06:38:20;8.20;;;4.70;;
77449;SDS011;66536;53.150;18.172;2023-08-06T06:40:53;6.70;;;5.20;;
77449;SDS011;66536;53.150;18.172;2023-08-06T06:43:19;5.40;;;4.60;;
77449;SDS011;66536;53.150;18.172;2023-08-06T06:45:45;7.20;;;5.70;;
77449;SDS011;66536;53.150;18.172;2023-08-06T06:48:11;8.90;;;5.00;;
77449;SDS011;66536;53.150;18.172;2023-08-06T06:50:37;5.30;;;4.80;;
77449;SDS011;66536;53.150;18.172;2023-08-06T06:53:06;6.50;;;5.20;;
77449;SDS011;66536;53.150;18.172;2023-08-06T06:55:32;7.40;;;5.10;;
77449;SDS011;66536;53.150;18.172;2023-08-06T06:57:58;8.80;;;5.30;;
77449;SDS011;66536;53.150;18.172;2023-08-06T07:00:28;6.80;;;5.50;;
77449;SDS011;66536;53.150;18.172;2023-08-06T07:02:54;6.50;;;4.80;;
77449;SDS011;66536;53.150;18.172;2023-08-06T07:05:20;7.90;;;5.10;;
77449;SDS011;66536;53.150;18.172;2023-08-06T07:07:47;7.90;;;5.30;;
77449;SDS011;66536;53.150;18.172;2023-08-06T07:10:14;5.50;;;4.40;;
77449;SDS011;66536;53.150;18.172;2023-08-06T07:12:41;5.10;;;4.40;;
77449;SDS011;66536;53.150;18.172;2023-08-06T07:15:08;5.30;;;4.80;;
77449;SDS011;66536;53.150;18.172;2023-08-06T07:17:34;8.30;;;5.30;;
77449;SDS011;66536;53.150;18.172;2023-08-06T07:20:00;7.10;;;5.40;;
77449;SDS011;66536;53.150;18.172;2023-08-06T07:22:26;8.50;;;5.30;;
77449;SDS011;66536;53.150;18.172;2023-08-06T07:24:51;6.70;;;4.60;;
77449;SDS011;66536;53.150;18.172;2023-08-06T07:27:17;6.00;;;4.50;;
77449;SDS011;66536;53.150;18.172;2023-08-06T07:29:45;9.50;;;4.60;;
77449;SDS011;66536;53.150;18.172;2023-08-06T07:32:11;6.60;;;4.70;;
77449;SDS011;66536;53.150;18.172;2023-08-06T07:34:37;7.10;;;4.50;;
77449;SDS011;66536;53.150;18.172;2023-08-06T07:37:03;6.70;;;4.60;;
77449;SDS011;66536;53.150;18.172;2023-08-06T07:39:29;5.10;;;4.00;;
77449;SDS011;66536;53.150;18.172;2023-08-06T07:41:55;7.20;;;5.20;;
77449;SDS011;66536;53.150;18.172;2023-08-06T07:44:21;6.20;;;4.30;;
77449;SDS011;66536;53.150;18.172;2023-08-06T07:46:47;4.90;;;4.30;;
77449;SDS011;66536;53.150;18.172;2023-08-06T07:49:13;6.70;;;4.30;;
77449;SDS011;66536;53.150;18.172;2023-08-06T07:51:39;7.00;;;4.40;;
77449;SDS011;66536;53.150;18.172;2023-08-06T07:54:06;5.50;;;4.30;;
77449;SDS011;66536;53.150;18.172;2023-08-06T07:56:33;7.00;;;4.40;;
77449;SDS011;66536;53.150;18.172;2023-08-06T07:58:59;4.50;;;4.10;;
77449;SDS011;66536;53.150;18.172;2023-08-06T08:01:25;6.20;;;3.90;;
77449;SDS011;66536;53.150;18.172;2023-08-06T08:03:51;5.10;;;4.20;;
77449;SDS011;66536;53.150;18.172;2023-08-06T08:06:17;4.30;;;3.70;;
77449;SDS011;66536;53.150;18.172;2023-08-06T08:08:42;5.10;;;3.30;;
77449;SDS011;66536;53.150;18.172;2023-08-06T08:11:09;4.00;;;3.60;;
77449;SDS011;66536;53.150;18.172;2023-08-06T08:13:35;5.50;;;4.60;;
77449;SDS011;66536;53.150;18.172;2023-08-06T08:16:01;5.60;;;3.90;;
77449;SDS011;66536;53.150;18.172;2023-08-06T08:18:27;5.70;;;4.00;;
77449;SDS011;66536;53.150;18.172;2023-08-06T08:20:54;4.40;;;3.90;;
77449;SDS011;66536;53.150;18.172;2023-08-06T08:23:20;6.50;;;3.80;;
77449;SDS011;66536;53.150;18.172;2023-08-06T08:25:45;5.50;;;4.00;;
77449;SDS011;66536;53.150;18.172;2023-08-06T08:28:11;4.10;;;3.70;;
77449;SDS011;66536;53.150;18.172;2023-08-06T08:30:37;4.70;;;3.50;;
77449;SDS011;66536;53.150;18.172;2023-08-06T08:33:05;4.10;;;3.60;;
77449;SDS011;66536;53.150;18.172;2023-08-06T08:35:33;6.30;;;3.50;;
77449;SDS011;66536;53.150;18.172;2023-08-06T08:38:00;4.90;;;3.60;;
77449;SDS011;66536;53.150;18.172;2023-08-06T08:40:30;6.20;;;3.80;;
77449;SDS011;66536;53.150;18.172;2023-08-06T08:42:58;4.00;;;3.60;;
77449;SDS011;66536;53.150;18.172;2023-08-06T08:45:26;5.20;;;3.90;;
77449;SDS011;66536;53.150;18.172;2023-08-06T08:47:54;4.80;;;3.40;;
77449;SDS011;66536;53.150;18.172;2023-08-06T08:50:21;4.30;;;3.90;;
77449;SDS011;66536;53.150;18.172;2023-08-06T08:52:47;5.20;;;3.80;;
77449;SDS011;66536;53.150;18.172;2023-08-06T08:55:16;6.50;;;4.10;;
77449;SDS011;66536;53.150;18.172;2023-08-06T08:57:42;4.50;;;4.00;;
77449;SDS011;66536;53.150;18.172;2023-08-06T09:00:09;5.30;;;4.20;;
77449;SDS011;66536;53.150;18.172;2023-08-06T09:02:35;6.90;;;4.60;;
77449;SDS011;66536;53.150;18.172;2023-08-06T09:05:04;6.10;;;4.40;;
77449;SDS011;66536;53.150;18.172;2023-08-06T09:07:33;6.40;;;4.60;;
77449;SDS011;66536;53.150;18.172;2023-08-06T09:10:04;7.30;;;4.80;;
77449;SDS011;66536;53.150;18.172;2023-08-06T09:12:34;8.50;;;5.10;;
77449;SDS011;66536;53.150;18.172;2023-08-06T09:15:00;8.20;;;5.80;;
77449;SDS011;66536;53.150;18.172;2023-08-06T09:17:28;6.60;;;4.30;;
77449;SDS011;66536;53.150;18.172;2023-08-06T09:19:54;9.10;;;5.10;;
77449;SDS011;66536;53.150;18.172;2023-08-06T09:22:20;6.30;;;5.10;;
77449;SDS011;66536;53.150;18.172;2023-08-06T09:24:46;7.80;;;5.50;;
77449;SDS011;66536;53.150;18.172;2023-08-06T09:27:13;6.10;;;4.50;;
77449;SDS011;66536;53.150;18.172;2023-08-06T09:29:40;6.10;;;5.50;;
77449;SDS011;66536;53.150;18.172;2023-08-06T09:32:07;7.40;;;5.20;;
77449;SDS011;66536;53.150;18.172;2023-08-06T09:34:33;5.80;;;4.90;;
77449;SDS011;66536;53.150;18.172;2023-08-06T09:37:00;7.40;;;5.20;;
77449;SDS011;66536;53.150;18.172;2023-08-06T09:39:27;5.40;;;4.90;;
77449;SDS011;66536;53.150;18.172;2023-08-06T09:41:56;11.30;;;5.70;;
77449;SDS011;66536;53.150;18.172;2023-08-06T09:44:25;5.90;;;5.00;;
77449;SDS011;66536;53.150;18.172;2023-08-06T09:46:54;5.50;;;5.00;;
77449;SDS011;66536;53.150;18.172;2023-08-06T09:49:53;5.80;;;5.00;;
77449;SDS011;66536;53.150;18.172;2023-08-06T09:52:10;6.30;;;4.60;;
77449;SDS011;66536;53.150;18.172;2023-08-06T09:54:37;6.90;;;5.50;;
77449;SDS011;66536;53.150;18.172;2023-08-06T09:57:04;5.90;;;5.00;;
77449;SDS011;66536;53.150;18.172;2023-08-06T09:59:32;5.30;;;4.10;;
77449;SDS011;66536;53.150;18.172;2023-08-06T10:01:59;5.50;;;4.70;;
77449;SDS011;66536;53.150;18.172;2023-08-06T10:04:26;6.10;;;5.20;;
77449;SDS011;66536;53.150;18.172;2023-08-06T10:06:57;6.90;;;6.20;;
77449;SDS011;66536;53.150;18.172;2023-08-06T10:09:26;6.30;;;5.70;;
77449;SDS011;66536;53.150;18.172;2023-08-06T10:11:52;5.80;;;5.30;;
77449;SDS011;66536;53.150;18.172;2023-08-06T10:14:27;5.10;;;4.60;;
77449;SDS011;66536;53.150;18.172;2023-08-06T10:16:56;5.80;;;5.00;;
77449;SDS011;66536;53.150;18.172;2023-08-06T10:19:24;10.20;;;5.90;;
77449;SDS011;66536;53.150;18.172;2023-08-06T10:27:22;5.20;;;4.70;;
77449;SDS011;66536;53.150;18.172;2023-08-06T10:29:54;5.40;;;4.80;;
77449;SDS011;66536;53.150;18.172;2023-08-06T10:32:20;5.00;;;4.50;;
77449;SDS011;66536;53.150;18.172;2023-08-06T10:34:55;6.20;;;4.80;;
77449;SDS011;66536;53.150;18.172;2023-08-06T10:37:23;5.60;;;5.10;;
77449;SDS011;66536;53.150;18.172;2023-08-06T10:39:59;4.90;;;4.50;;
77449;SDS011;66536;53.150;18.172;2023-08-06T10:42:27;7.70;;;5.90;;
77449;SDS011;66536;53.150;18.172;2023-08-06T10:47:41;5.90;;;5.30;;
77449;SDS011;66536;53.150;18.172;2023-08-06T10:50:10;5.60;;;5.00;;
77449;SDS011;66536;53.150;18.172;2023-08-06T10:52:39;6.40;;;5.40;;
77449;SDS011;66536;53.150;18.172;2023-08-06T10:55:06;5.90;;;5.40;;
77449;SDS011;66536;53.150;18.172;2023-08-06T10:57:32;6.60;;;5.60;;
77449;SDS011;66536;53.150;18.172;2023-08-06T10:59:58;8.10;;;5.50;;
77449;SDS011;66536;53.150;18.172;2023-08-06T11:02:24;5.50;;;4.80;;
77449;SDS011;66536;53.150;18.172;2023-08-06T11:04:51;5.70;;;4.70;;
77449;SDS011;66536;53.150;18.172;2023-08-06T11:07:17;5.10;;;4.60;;
77449;SDS011;66536;53.150;18.172;2023-08-06T11:09:43;6.30;;;5.40;;
77449;SDS011;66536;53.150;18.172;2023-08-06T11:12:09;5.40;;;4.80;;
77449;SDS011;66536;53.150;18.172;2023-08-06T11:14:35;7.30;;;5.40;;
77449;SDS011;66536;53.150;18.172;2023-08-06T11:17:02;5.90;;;5.10;;
77449;SDS011;66536;53.150;18.172;2023-08-06T11:19:28;6.60;;;6.00;;
77449;SDS011;66536;53.150;18.172;2023-08-06T11:21:54;5.70;;;5.00;;
77449;SDS011;66536;53.150;18.172;2023-08-06T11:24:22;7.00;;;6.10;;
77449;SDS011;66536;53.150;18.172;2023-08-06T11:26:49;7.40;;;6.10;;
77449;SDS011;66536;53.150;18.172;2023-08-06T11:29:15;9.30;;;6.90;;
77449;SDS011;66536;53.150;18.172;2023-08-06T11:31:41;8.40;;;6.30;;
77449;SDS011;66536;53.150;18.172;2023-08-06T11:34:07;10.00;;;7.40;;
77449;SDS011;66536;53.150;18.172;2023-08-06T11:36:36;11.30;;;7.90;;
77449;SDS011;66536;53.150;18.172;2023-08-06T11:39:06;9.50;;;7.50;;
77449;SDS011;66536;53.150;18.172;2023-08-06T11:41:32;10.00;;;8.10;;
77449;SDS011;66536;53.150;18.172;2023-08-06T11:43:59;10.90;;;8.30;;
77449;SDS011;66536;53.150;18.172;2023-08-06T11:46:25;11.50;;;9.30;;
77449;SDS011;66536;53.150;18.172;2023-08-06T11:48:52;10.30;;;8.50;;
77449;SDS011;66536;53.150;18.172;2023-08-06T11:51:27;14.30;;;9.30;;
77449;SDS011;66536;53.150;18.172;2023-08-06T11:53:57;13.80;;;9.20;;
77449;SDS011;66536;53.150;18.172;2023-08-06T11:56:24;14.50;;;9.40;;
77449;SDS011;66536;53.150;18.172;2023-08-06T11:58:51;11.00;;;9.20;;
77449;SDS011;66536;53.150;18.172;2023-08-06T12:01:18;14.30;;;10.00;;
77449;SDS011;66536;53.150;18.172;2023-08-06T12:03:44;11.80;;;10.00;;
77449;SDS011;66536;53.150;18.172;2023-08-06T12:06:10;16.40;;;12.70;;
77449;SDS011;66536;53.150;18.172;2023-08-06T12:08:36;13.00;;;11.10;;
77449;SDS011;66536;53.150;18.172;2023-08-06T12:11:03;12.90;;;10.40;;
77449;SDS011;66536;53.150;18.172;2023-08-06T12:13:29;14.80;;;10.90;;
77449;SDS011;66536;53.150;18.172;2023-08-06T12:15:55;15.80;;;11.10;;
77449;SDS011;66536;53.150;18.172;2023-08-06T12:18:23;16.50;;;11.50;;
77449;SDS011;66536;53.150;18.172;2023-08-06T12:20:49;15.30;;;11.50;;
77449;SDS011;66536;53.150;18.172;2023-08-06T12:23:17;14.70;;;11.60;;
77449;SDS011;66536;53.150;18.172;2023-08-06T12:25:43;20.80;;;12.70;;
77449;SDS011;66536;53.150;18.172;2023-08-06T12:28:10;17.00;;;12.50;;
77449;SDS011;66536;53.150;18.172;2023-08-06T12:30:37;19.70;;;12.30;;
77449;SDS011;66536;53.150;18.172;2023-08-06T12:33:07;19.30;;;12.70;;
77449;SDS011;66536;53.150;18.172;2023-08-06T12:35:33;19.50;;;12.90;;
77449;SDS011;66536;53.150;18.172;2023-08-06T12:37:59;19.20;;;13.70;;
77449;SDS011;66536;53.150;18.172;2023-08-06T12:40:25;19.80;;;13.20;;
77449;SDS011;66536;53.150;18.172;2023-08-06T12:42:51;17.30;;;13.60;;
77449;SDS011;66536;53.150;18.172;2023-08-06T12:45:17;20.20;;;14.10;;
77449;SDS011;66536;53.150;18.172;2023-08-06T12:47:47;19.20;;;14.70;;
77449;SDS011;66536;53.150;18.172;2023-08-06T12:50:14;23.90;;;13.50;;
77449;SDS011;66536;53.150;18.172;2023-08-06T12:52:40;18.90;;;13.40;;
77449;SDS011;66536;53.150;18.172;2023-08-06T12:55:07;15.30;;;12.40;;
77449;SDS011;66536;53.150;18.172;2023-08-06T12:57:33;18.20;;;12.80;;
77449;SDS011;66536;53.150;18.172;2023-08-06T13:00:00;17.30;;;13.00;;
77449;SDS011;66536;53.150;18.172;2023-08-06T13:02:26;17.40;;;12.90;;
77449;SDS011;66536;53.150;18.172;2023-08-06T13:04:55;17.90;;;12.90;;
77449;SDS011;66536;53.150;18.172;2023-08-06T13:07:21;13.80;;;11.50;;
77449;SDS011;66536;53.150;18.172;2023-08-06T13:09:47;14.60;;;12.30;;
77449;SDS011;66536;53.150;18.172;2023-08-06T13:12:13;15.60;;;11.90;;
77449;SDS011;66536;53.150;18.172;2023-08-06T13:14:39;14.20;;;11.50;;
77449;SDS011;66536;53.150;18.172;2023-08-06T13:17:05;14.60;;;12.20;;
77449;SDS011;66536;53.150;18.172;2023-08-06T13:19:33;15.60;;;11.80;;
77449;SDS011;66536;53.150;18.172;2023-08-06T13:22:00;14.70;;;12.60;;
77449;SDS011;66536;53.150;18.172;2023-08-06T13:24:29;14.70;;;11.90;;
77449;SDS011;66536;53.150;18.172;2023-08-06T13:26:55;14.40;;;11.90;;
77449;SDS011;66536;53.150;18.172;2023-08-06T13:29:21;16.80;;;11.90;;
77449;SDS011;66536;53.150;18.172;2023-08-06T13:31:47;16.50;;;11.50;;
77449;SDS011;66536;53.150;18.172;2023-08-06T13:34:13;14.10;;;11.50;;
77449;SDS011;66536;53.150;18.172;2023-08-06T13:36:39;15.10;;;11.00;;
77449;SDS011;66536;53.150;18.172;2023-08-06T13:39:05;13.30;;;11.10;;
77449;SDS011;66536;53.150;18.172;2023-08-06T13:41:31;14.80;;;11.50;;
77449;SDS011;66536;53.150;18.172;2023-08-06T13:43:57;12.50;;;10.80;;
77449;SDS011;66536;53.150;18.172;2023-08-06T13:46:23;16.00;;;11.70;;
77449;SDS011;66536;53.150;18.172;2023-08-06T13:48:50;17.00;;;11.50;;
77449;SDS011;66536;53.150;18.172;2023-08-06T13:51:17;14.50;;;10.90;;
77449;SDS011;66536;53.150;18.172;2023-08-06T13:53:43;12.40;;;11.00;;
77449;SDS011;66536;53.150;18.172;2023-08-06T13:56:09;13.10;;;11.30;;
77449;SDS011;66536;53.150;18.172;2023-08-06T13:58:37;18.50;;;12.10;;
77449;SDS011;66536;53.150;18.172;2023-08-06T14:01:03;14.30;;;12.60;;
77449;SDS011;66536;53.150;18.172;2023-08-06T14:03:29;15.40;;;11.60;;
77449;SDS011;66536;53.150;18.172;2023-08-06T14:05:55;13.80;;;12.40;;
77449;SDS011;66536;53.150;18.172;2023-08-06T14:08:22;15.40;;;13.00;;
77449;SDS011;66536;53.150;18.172;2023-08-06T14:10:50;21.60;;;13.10;;
77449;SDS011;66536;53.150;18.172;2023-08-06T14:13:17;14.50;;;12.20;;
77449;SDS011;66536;53.150;18.172;2023-08-06T14:15:43;14.40;;;12.50;;
77449;SDS011;66536;53.150;18.172;2023-08-06T14:18:13;17.20;;;13.90;;
77449;SDS011;66536;53.150;18.172;2023-08-06T14:20:40;20.80;;;13.50;;
77449;SDS011;66536;53.150;18.172;2023-08-06T14:23:06;22.20;;;17.30;;
77449;SDS011;66536;53.150;18.172;2023-08-06T14:25:32;29.00;;;21.30;;
77449;SDS011;66536;53.150;18.172;2023-08-06T14:27:58;29.00;;;21.80;;
77449;SDS011;66536;53.150;18.172;2023-08-06T14:30:25;21.00;;;15.10;;
77449;SDS011;66536;53.150;18.172;2023-08-06T14:32:51;18.60;;;15.20;;
77449;SDS011;66536;53.150;18.172;2023-08-06T14:35:17;20.60;;;15.10;;
77449;SDS011;66536;53.150;18.172;2023-08-06T14:37:43;19.30;;;14.50;;
77449;SDS011;66536;53.150;18.172;2023-08-06T14:40:12;19.20;;;14.50;;
77449;SDS011;66536;53.150;18.172;2023-08-06T14:42:38;20.10;;;15.20;;